Time,TemperatureF,DewpointF,PressureIn,WindDirection,WindDirectionDegrees,WindSpeedMPH,WindSpeedGustMPH,Humidity,HourlyPrecipIn,Conditions,Clouds,dailyrainin,SoftwareType,DateUTC
2013-10-15 00:02:00,58.8,51.3,30.03,North,0,0.0,0.0,76,0.00,,,0.00,WUHU21623XXSP,2013-10-15 05:02:00,
2013-10-15 00:07:00,58.8,51.3,30.02,North,0,0.0,0.0,76,0.00,,,0.00,WUHU21623XXSP,2013-10-15 05:07:00,
2013-10-15 00:12:00,58.8,51.3,30.03,North,0,0.0,0.0,76,0.00,,,0.00,WUHU21623XXSP,2013-10-15 05:12:00,
2013-10-15 00:17:00,58.8,51.3,30.02,North,0,0.0,0.0,77,0.00,,,0.00,WUHU21623XXSP,2013-10-15 05:17:00,
2013-10-15 00:22:00,58.8,51.6,30.01,North,0,0.0,0.0,77,0.00,,,0.00,WUHU21623XXSP,2013-10-15 05:22:00,
2013-10-15 00:27:00,58.8,51.6,30.01,North,0,0.0,0.0,77,0.00,,,0.00,WUHU21623XXSP,2013-10-15 05:27:00,
2013-10-15 00:32:00,58.8,51.6,30.00,North,0,0.0,0.0,77,0.00,,,0.00,WUHU21623XXSP,2013-10-15 05:32:00,
2013-10-15 00:37:00,58.8,52.0,30.00,North,0,0.0,0.0,77,0.00,,,0.00,WUHU21623XXSP,2013-10-15 05:37:00,
2013-10-15 00:42:00,58.8,52.0,29.99,North,0,0.0,0.0,78,0.00,,,0.00,WUHU21623XXSP,2013-10-15 05:42:00,
2013-10-15 00:47:00,58.8,52.0,30.00,North,0,0.0,0.0,78,0.00,,,0.00,WUHU21623XXSP,2013-10-15 05:47:00,
2013-10-15 00:52:00,58.8,52.0,29.99,North,0,0.0,0.0,78,0.00,,,0.00,WUHU21623XXSP,2013-10-15 05:52:00,
2013-10-15 00:57:00,58.8,52.3,29.98,North,0,0.0,0.0,79,0.00,,,0.00,WUHU21623XXSP,2013-10-15 05:57:00,
2013-10-15 01:02:00,58.8,52.3,29.99,North,0,0.0,0.0,79,0.00,,,0.00,WUHU21623XXSP,2013-10-15 06:02:00,
2013-10-15 01:07:00,58.8,52.3,29.99,North,0,0.0,0.0,79,0.00,,,0.00,WUHU21623XXSP,2013-10-15 06:07:00,
2013-10-15 01:12:00,58.8,52.3,29.98,North,0,0.0,0.0,79,0.00,,,0.00,WUHU21623XXSP,2013-10-15 06:12:00,
2013-10-15 01:17:00,59.2,52.7,29.98,North,0,0.0,0.0,79,0.00,,,0.00,WUHU21623XXSP,2013-10-15 06:17:00,
2013-10-15 01:22:00,59.2,53.1,29.98,North,0,0.0,0.0,80,0.00,,,0.00,WUHU21623XXSP,2013-10-15 06:22:00,
2013-10-15 01:27:00,59.4,53.2,29.98,North,0,0.0,0.0,80,0.00,,,0.00,WUHU21623XXSP,2013-10-15 06:27:00,
2013-10-15 01:32:00,59.4,53.2,29.97,North,0,0.0,0.0,80,0.00,,,0.00,WUHU21623XXSP,2013-10-15 06:32:00,
2013-10-15 01:37:00,59.5,53.4,29.97,North,0,0.0,0.0,80,0.00,,,0.00,WUHU21623XXSP,2013-10-15 06:37:00,
2013-10-15 01:42:00,59.5,53.4,29.98,North,0,0.0,0.0,80,0.00,,,0.00,WUHU21623XXSP,2013-10-15 06:42:00,
2013-10-15 01:47:00,59.5,53.4,29.98,North,0,0.0,0.0,80,0.00,,,0.00,WUHU21623XXSP,2013-10-15 06:47:00,
2013-10-15 01:52:00,59.5,53.4,29.98,North,0,0.0,0.0,80,0.00,,,0.00,WUHU21623XXSP,2013-10-15 06:52:00,
2013-10-15 01:57:00,59.5,53.4,29.98,North,0,0.0,0.0,80,0.00,,,0.00,WUHU21623XXSP,2013-10-15 06:57:00,
2013-10-15 02:02:00,59.5,53.4,29.97,North,0,0.0,0.0,80,0.00,,,0.00,WUHU21623XXSP,2013-10-15 07:02:00,
2013-10-15 02:07:00,59.5,53.4,29.97,North,0,0.0,0.0,80,0.00,,,0.00,WUHU21623XXSP,2013-10-15 07:07:00,
2013-10-15 02:12:00,59.5,53.4,29.97,North,0,0.0,0.0,80,0.00,,,0.00,WUHU21623XXSP,2013-10-15 07:12:00,
2013-10-15 02:17:00,59.5,53.4,29.97,North,0,0.0,0.0,80,0.00,,,0.00,WUHU21623XXSP,2013-10-15 07:17:00,
2013-10-15 02:22:00,59.5,53.4,29.96,North,0,0.0,0.0,80,0.00,,,0.00,WUHU21623XXSP,2013-10-15 07:22:00,
2013-10-15 02:27:00,59.5,53.7,29.96,North,0,0.0,0.0,81,0.00,,,0.00,WUHU21623XXSP,2013-10-15 07:27:00,
2013-10-15 02:32:00,59.5,53.7,29.96,North,0,0.0,0.0,81,0.00,,,0.00,WUHU21623XXSP,2013-10-15 07:32:00,
2013-10-15 02:37:00,59.5,53.7,29.95,North,0,0.0,0.0,81,0.00,,,0.00,WUHU21623XXSP,2013-10-15 07:37:00,
2013-10-15 02:42:00,59.7,53.9,29.95,North,0,0.0,0.0,81,0.00,,,0.00,WUHU21623XXSP,2013-10-15 07:42:00,
2013-10-15 02:47:00,59.7,53.9,29.95,North,0,0.0,0.0,81,0.00,,,0.00,WUHU21623XXSP,2013-10-15 07:47:00,
2013-10-15 02:52:00,59.7,53.9,29.95,North,0,0.0,0.0,82,0.00,,,0.00,WUHU21623XXSP,2013-10-15 07:52:00,
2013-10-15 02:57:00,59.9,54.4,29.95,North,0,0.0,0.0,82,0.00,,,0.00,WUHU21623XXSP,2013-10-15 07:57:00,
2013-10-15 03:02:00,59.9,54.4,29.97,North,0,0.0,0.0,82,0.00,,,0.00,WUHU21623XXSP,2013-10-15 08:02:00,
2013-10-15 13:08:00,61.7,55.1,29.95,North,0,0.0,0.0,79,0.00,,,0.00,WUHU21623XXSP,2013-10-15 18:08:00,
2013-10-15 13:11:00,61.5,55.0,29.95,North,0,0.0,0.0,79,0.00,,,0.00,WUHU21623XXSP,2013-10-15 18:11:00,
2013-10-15 13:16:00,61.3,54.8,29.95,North,0,0.0,0.0,79,0.00,,,0.00,WUHU21623XXSP,2013-10-15 18:16:00,
2013-10-15 13:21:00,61.0,54.5,29.95,North,0,0.0,0.0,79,0.00,,,0.00,WUHU21623XXSP,2013-10-15 18:21:00,
2013-10-15 13:26:00,60.6,54.5,29.94,North,0,0.0,0.0,80,0.00,,,0.00,WUHU21623XXSP,2013-10-15 18:26:00,
2013-10-15 13:31:00,60.6,54.5,29.94,North,0,0.0,0.0,80,0.00,,,0.00,WUHU21623XXSP,2013-10-15 18:31:00,
2013-10-15 13:36:00,60.6,54.1,29.93,North,0,0.0,0.0,79,0.00,,,0.00,WUHU21623XXSP,2013-10-15 18:36:00,
2013-10-15 13:41:00,60.8,54.3,29.94,North,0,0.0,0.0,79,0.00,,,0.00,WUHU21623XXSP,2013-10-15 18:41:00,
2013-10-15 13:46:00,61.0,54.5,29.94,North,0,0.0,0.0,79,0.00,,,0.00,WUHU21623XXSP,2013-10-15 18:46:00,
2013-10-15 13:51:00,61.2,54.6,29.93,North,0,0.0,0.0,79,0.00,,,0.00,WUHU21623XXSP,2013-10-15 18:51:00,
2013-10-15 13:56:00,61.3,54.8,29.93,North,0,0.0,0.0,79,0.00,,,0.00,WUHU21623XXSP,2013-10-15 18:56:00,
2013-10-15 23:20:00,52.3,42.9,30.03,North,0,0.0,0.0,70,0.00,,,0.00,WUHU21623XXSP,2013-10-16 04:20:00,
2013-10-15 23:23:00,52.3,42.9,30.03,North,0,0.0,0.0,70,0.00,,,0.00,WUHU21623XXSP,2013-10-16 04:23:00,
2013-10-15 23:25:00,52.2,42.8,30.03,North,0,0.0,0.0,70,0.00,,,0.00,WUHU21623XXSP,2013-10-16 04:25:00,
2013-10-15 23:28:00,52.2,42.8,30.03,North,0,0.0,0.0,70,0.00,,,0.00,WUHU21623XXSP,2013-10-16 04:28:00,
2013-10-15 23:30:00,52.2,42.8,30.03,North,0,0.0,0.0,70,0.00,,,0.00,WUHU21623XXSP,2013-10-16 04:30:00,
2013-10-15 23:35:00,52.0,42.6,30.03,North,0,0.0,0.0,70,0.00,,,0.00,WUHU21623XXSP,2013-10-16 04:35:00,
2013-10-15 23:40:00,51.6,42.4,30.02,North,0,0.0,0.0,70,0.00,,,0.00,WUHU21623XXSP,2013-10-16 04:40:00,
2013-10-15 23:45:00,51.6,42.3,30.03,North,0,0.0,0.0,70,0.00,,,0.00,WUHU21623XXSP,2013-10-16 04:45:00,
2013-10-15 23:50:00,51.6,42.3,30.02,North,0,0.0,0.0,70,0.00,,,0.00,WUHU21623XXSP,2013-10-16 04:50:00,
2013-10-15 23:53:00,51.4,42.1,30.03,North,0,0.0,0.0,70,0.00,,,0.00,WUHU21623XXSP,2013-10-16 04:53:00,
2013-10-15 23:58:00,51.3,41.9,30.02,North,0,0.0,0.0,70,0.00,,,0.00,WUHU21623XXSP,2013-10-16 04:58:00,